Time;durP1;ratioP1;P1;durP2;ratioP2;P2;SDS_P1;SDS_P2;PMS_P1;PMS_P2;Temp;Humidity;BMP_temperature;BMP_pressure;BME280_temperature;BME280_humidity;BME280_pressure;Samples;Min_cycle;Max_cycle;Signal;HPM_P1;HPM_P2
2022/08/08 00:03:28;;;;;;;3.00;1.80;;;24.10;45.90;;;;;;221274;1265;25705;-59
2022/08/08 00:09:09;;;;;;;4.40;2.10;;;24.10;46.30;;;;;;220736;1265;22630;-60
2022/08/08 00:15:00;;;;;;;4.60;2.00;;;24.10;45.90;;;;;;221164;1265;24284;-60
2022/08/08 00:20:09;;;;;;;2.50;1.60;;;24.10;46.00;;;;;;220847;1265;22794;-64
2022/08/08 00:25:25;;;;;;;5.30;1.60;;;24.00;46.50;;;;;;221294;1265;22764;-61
2022/08/08 00:30:53;;;;;;;5.10;1.90;;;24.00;46.30;;;;;;221181;1265;22623;-58
2022/08/08 00:36:12;;;;;;;2.00;1.30;;;24.00;46.50;;;;;;221215;1265;25403;-58
2022/08/08 00:41:33;;;;;;;3.80;1.70;;;24.00;46.50;;;;;;221028;1265;22534;-59
2022/08/08 00:47:12;;;;;;;3.10;1.60;;;24.00;46.10;;;;;;221160;1265;24275;-60
2022/08/08 00:52:59;;;;;;;2.40;1.50;;;24.00;46.10;;;;;;221081;1265;22524;-62
2022/08/08 00:58:50;;;;;;;5.60;1.70;;;24.00;46.10;;;;;;221345;1262;22549;-60
2022/08/08 01:04:11;;;;;;;2.10;1.40;;;23.90;46.10;;;;;;220468;1265;22685;-60
2022/08/08 01:09:50;;;;;;;5.20;1.70;;;24.00;46.20;;;;;;221285;1265;22632;-60
2022/08/08 01:15:26;;;;;;;3.50;1.90;;;24.00;46.60;;;;;;220995;1265;24404;-59
2022/08/08 01:21:06;;;;;;;2.40;1.40;;;23.90;46.20;;;;;;221021;1265;22607;-58
2022/08/08 01:26:26;;;;;;;4.60;1.70;;;23.90;46.20;;;;;;221164;1265;22522;-60
2022/08/08 01:31:54;;;;;;;2.40;1.50;;;23.90;46.30;;;;;;221446;1265;22600;-59
2022/08/08 01:37:28;;;;;;;4.40;1.70;;;23.80;46.30;;;;;;221679;1262;25618;-58
2022/08/08 01:43:03;;;;;;;3.30;1.60;;;23.80;46.30;;;;;;221250;1262;25420;-59
2022/08/08 01:48:34;;;;;;;2.00;1.30;;;23.80;46.60;;;;;;221415;1262;25866;-61
2022/08/08 01:53:45;;;;;;;2.80;1.60;;;23.80;46.30;;;;;;221332;1262;25341;-60
2022/08/08 01:59:34;;;;;;;2.70;1.50;;;23.80;46.40;;;;;;221336;1265;26462;-58
2022/08/08 02:05:11;;;;;;;3.30;1.50;;;23.70;46.70;;;;;;221367;1265;26775;-60
2022/08/08 02:10:41;;;;;;;3.20;1.70;;;23.70;47.10;;;;;;221185;1265;25358;-59
2022/08/08 02:16:27;;;;;;;3.80;1.70;;;23.70;46.80;;;;;;221238;1265;22850;-60
2022/08/08 02:27:12;;;;;;;2.80;1.30;;;23.70;46.40;;;;;;221109;1265;25321;-61
2022/08/08 02:32:39;;;;;;;3.90;1.60;;;23.60;46.50;;;;;;221405;1265;25512;-60
2022/08/08 02:37:50;;;;;;;2.60;1.40;;;23.60;46.90;;;;;;221307;1263;25410;-60
2022/08/08 02:43:17;;;;;;;2.60;1.40;;;23.60;46.90;;;;;;221673;1262;25356;-58
2022/08/08 02:49:01;;;;;;;4.40;1.70;;;23.60;46.90;;;;;;221500;1265;25519;-59
2022/08/08 02:54:33;;;;;;;3.00;1.60;;;23.50;46.10;;;;;;221788;1262;22832;-59
2022/08/08 03:00:16;;;;;;;5.40;1.50;;;23.50;46.80;;;;;;221473;1262;24277;-63
2022/08/08 03:05:49;;;;;;;3.00;1.40;;;23.50;46.60;;;;;;221678;1262;22532;-59
2022/08/08 03:11:35;;;;;;;4.20;1.70;;;23.50;46.70;;;;;;221484;1262;22570;-61
2022/08/08 03:17:28;;;;;;;2.50;1.50;;;23.50;46.80;;;;;;221568;1261;24434;-59
2022/08/08 03:22:50;;;;;;;2.60;1.60;;;23.40;46.70;;;;;;221525;1262;22743;-60
2022/08/08 03:28:11;;;;;;;3.80;1.50;;;23.50;46.60;;;;;;221761;1262;22646;-61
2022/08/08 03:33:18;;;;;;;6.10;1.40;;;23.40;46.90;;;;;;221150;1262;25254;-60
2022/08/08 03:38:41;;;;;;;2.20;1.50;;;23.40;46.50;;;;;;221647;1262;22533;-60
2022/08/08 03:44:08;;;;;;;2.40;1.60;;;23.40;46.70;;;;;;221639;1261;24255;-58
2022/08/08 03:49:24;;;;;;;2.10;1.50;;;23.30;46.50;;;;;;221606;1261;22886;-59
2022/08/08 03:54:46;;;;;;;3.10;1.60;;;23.30;46.60;;;;;;221254;1262;25557;-63
2022/08/08 04:00:13;;;;;;;4.60;1.50;;;23.30;46.50;;;;;;221121;1265;25659;-59
2022/08/08 04:05:25;;;;;;;5.50;1.70;;;23.30;46.90;;;;;;221183;1262;25244;-60
2022/08/08 04:10:35;;;;;;;3.00;1.80;;;23.30;46.20;;;;;;221337;1261;25300;-58
2022/08/08 04:15:39;;;;;;;2.60;1.40;;;23.30;45.90;;;;;;221598;1262;22613;-62
2022/08/08 04:21:01;;;;;;;2.70;1.70;;;23.30;46.50;;;;;;221403;1262;24213;-60
2022/08/08 04:26:09;;;;;;;2.40;1.40;;;23.30;46.90;;;;;;221446;1261;22555;-59
2022/08/08 04:31:12;;;;;;;3.00;1.50;;;23.30;46.60;;;;;;221718;1262;23004;-60
2022/08/08 04:36:35;;;;;;;3.10;1.60;;;23.30;46.70;;;;;;221383;1261;25536;-60
2022/08/08 04:41:37;;;;;;;2.20;1.40;;;23.30;46.80;;;;;;221254;1262;22704;-60
2022/08/08 04:46:39;;;;;;;3.20;1.50;;;23.20;46.90;;;;;;221494;1262;24284;-58
2022/08/08 04:51:45;;;;;;;4.40;1.60;;;23.30;47.00;;;;;;221414;1262;22583;-60
2022/08/08 04:56:59;;;;;;;3.20;1.80;;;23.20;47.20;;;;;;220779;1262;1203419;-59
2022/08/08 05:02:02;;;;;;;3.90;1.80;;;23.20;47.20;;;;;;221430;1262;22532;-61
2022/08/08 05:07:08;;;;;;;2.90;1.60;;;23.20;47.40;;;;;;221599;1262;25548;-60
2022/08/08 05:12:11;;;;;;;3.70;1.90;;;23.30;47.60;;;;;;221737;1262;22588;-61
2022/08/08 05:17:24;;;;;;;4.40;1.90;;;23.20;48.00;;;;;;221248;1263;22777;-60
2022/08/08 05:22:26;;;;;;;5.40;1.90;;;23.20;48.20;;;;;;221213;1265;24215;-61
2022/08/08 05:27:31;;;;;;;4.50;1.90;;;23.20;48.70;;;;;;220901;1265;22621;-60
2022/08/08 05:32:37;;;;;;;5.40;1.80;;;23.20;48.60;;;;;;221306;1262;22554;-59
2022/08/08 05:37:50;;;;;;;4.00;2.00;;;23.20;48.60;;;;;;220759;1267;25682;-60
2022/08/08 05:43:09;;;;;;;3.60;2.00;;;23.20;49.10;;;;;;221353;1262;23937;-59
2022/08/08 05:48:36;;;;;;;7.10;1.90;;;23.20;49.40;;;;;;220995;1262;22547;-61
2022/08/08 05:53:45;;;;;;;4.60;1.90;;;23.30;49.30;;;;;;221517;1262;23178;-61
2022/08/08 05:59:21;;;;;;;5.50;1.70;;;23.20;49.20;;;;;;221444;1262;24991;-61
2022/08/08 06:04:53;;;;;;;4.40;1.80;;;23.30;49.40;;;;;;221612;1262;24343;-60
2022/08/08 06:10:04;;;;;;;3.30;1.80;;;23.30;49.60;;;;;;221465;1262;22551;-59
2022/08/08 06:15:13;;;;;;;3.80;1.80;;;23.30;49.60;;;;;;221595;1262;22769;-60
2022/08/08 06:20:18;;;;;;;3.30;1.80;;;23.20;49.90;;;;;;221357;1262;25304;-59
2022/08/08 06:25:24;;;;;;;3.30;2.00;;;23.20;49.80;;;;;;221582;1262;25309;-60
2022/08/08 06:30:49;;;;;;;4.00;1.90;;;23.20;50.20;;;;;;221531;1262;22554;-61
2022/08/08 06:35:56;;;;;;;5.10;1.80;;;23.20;49.60;;;;;;221471;1262;22546;-60
2022/08/08 06:41:12;;;;;;;3.70;1.70;;;23.30;49.70;;;;;;221370;1262;24257;-59
2022/08/08 06:46:20;;;;;;;2.40;1.40;;;23.30;49.40;;;;;;221114;1262;22544;-59
2022/08/08 06:51:27;;;;;;;4.90;2.00;;;23.30;49.40;;;;;;221440;1262;24205;-63
2022/08/08 06:56:52;;;;;;;4.60;1.50;;;23.30;49.30;;;;;;221190;1262;24333;-60
2022/08/08 07:02:00;;;;;;;3.70;1.80;;;23.30;49.50;;;;;;221341;1262;22714;-62
2022/08/08 07:07:52;;;;;;;3.90;1.90;;;23.30;49.00;;;;;;221462;1265;25394;-60
2022/08/08 07:13:07;;;;;;;4.30;1.90;;;23.30;49.30;;;;;;220804;1265;24240;-60
2022/08/08 07:18:23;;;;;;;4.20;1.90;;;23.30;48.90;;;;;;221174;1265;24439;-59
2022/08/08 07:23:57;;;;;;;3.50;1.70;;;23.40;49.20;;;;;;221524;1262;25212;-59
2022/08/08 07:29:12;;;;;;;4.70;1.70;;;23.40;48.60;;;;;;221724;1262;24280;-59
2022/08/08 07:34:36;;;;;;;3.60;1.50;;;23.40;49.00;;;;;;221778;1261;22718;-60
2022/08/08 07:39:51;;;;;;;3.00;1.40;;;23.20;49.00;;;;;;221724;1261;25228;-58
2022/08/08 07:45:09;;;;;;;2.10;1.40;;;23.30;48.60;;;;;;221600;1262;23997;-59
2022/08/08 07:50:17;;;;;;;2.50;1.60;;;23.40;48.80;;;;;;221556;1262;22586;-60
2022/08/08 07:55:33;;;;;;;3.00;1.20;;;23.50;48.30;;;;;;221768;1262;22535;-59
2022/08/08 08:00:58;;;;;;;3.40;1.70;;;23.50;48.00;;;;;;221620;1262;22814;-59
2022/08/08 08:06:05;;;;;;;2.80;1.30;;;23.60;47.80;;;;;;221492;1261;24240;-59
2022/08/08 08:11:23;;;;;;;4.20;1.50;;;23.60;47.40;;;;;;221599;1261;24194;-61
2022/08/08 08:16:47;;;;;;;4.20;1.50;;;23.60;47.70;;;;;;221419;1261;25454;-61
2022/08/08 08:21:53;;;;;;;3.00;1.60;;;23.60;46.90;;;;;;221120;1262;25445;-60
2022/08/08 08:27:24;;;;;;;2.70;1.30;;;23.60;46.90;;;;;;221278;1265;22714;-60
2022/08/08 08:32:34;;;;;;;3.60;1.20;;;23.70;46.10;;;;;;221146;1265;22833;-59
2022/08/08 08:37:58;;;;;;;2.90;1.50;;;23.70;46.10;;;;;;221168;1265;22611;-60
2022/08/08 08:43:22;;;;;;;5.60;1.20;;;23.70;46.00;;;;;;221738;1262;25578;-59
2022/08/08 08:48:33;;;;;;;2.00;1.10;;;23.80;45.00;;;;;;221614;1261;23511;-59
2022/08/08 08:53:42;;;;;;;3.60;1.70;;;23.80;45.00;;;;;;221445;1261;22537;-63
2022/08/08 08:59:04;;;;;;;2.60;1.20;;;23.90;45.40;;;;;;221633;1263;24414;-60
2022/08/08 09:04:20;;;;;;;3.60;1.70;;;23.90;45.50;;;;;;221499;1262;24061;-60
2022/08/08 09:09:49;;;;;;;3.30;1.30;;;23.90;45.80;;;;;;221389;1262;26566;-59
2022/08/08 09:15:08;;;;;;;3.40;1.50;;;23.90;45.30;;;;;;221340;1262;26488;-60
2022/08/08 09:20:45;;;;;;;2.80;1.40;;;24.00;44.50;;;;;;221368;1262;25357;-60
2022/08/08 09:26:49;;;;;;;3.80;1.30;;;24.10;44.50;;;;;;221287;1262;22811;-60
2022/08/08 09:32:05;;;;;;;4.50;1.50;;;24.10;44.50;;;;;;220127;1265;26742;-59
2022/08/08 09:37:28;;;;;;;4.20;1.30;;;24.10;44.80;;;;;;221284;1262;25245;-60
2022/08/08 09:43:10;;;;;;;2.40;1.20;;;24.20;44.00;;;;;;221406;1262;24018;-58
2022/08/08 09:48:33;;;;;;;2.70;1.40;;;24.20;44.00;;;;;;221211;1262;24280;-59
2022/08/08 09:54:01;;;;;;;3.00;1.20;;;24.20;43.90;;;;;;221308;1262;22528;-59
2022/08/08 09:59:26;;;;;;;4.00;1.50;;;24.30;43.80;;;;;;221366;1262;22691;-63
2022/08/08 10:05:17;;;;;;;2.40;1.30;;;24.40;43.80;;;;;;221378;1261;24459;-59
2022/08/08 10:10:57;;;;;;;4.10;1.50;;;24.50;43.60;;;;;;221371;1261;22883;-59
2022/08/08 10:16:04;;;;;;;2.30;1.30;;;24.50;43.80;;;;;;221574;1264;24052;-60
2022/08/08 10:21:28;;;;;;;1.90;1.10;;;24.60;43.50;;;;;;221335;1261;25405;-60
2022/08/08 10:26:54;;;;;;;4.70;1.70;;;24.60;43.60;;;;;;221327;1261;25470;-61
2022/08/08 10:32:31;;;;;;;4.60;1.40;;;24.60;43.50;;;;;;221396;1261;24199;-61
2022/08/08 10:38:13;;;;;;;3.20;1.50;;;24.60;43.70;;;;;;221631;1262;24141;-60
2022/08/08 10:43:23;;;;;;;2.80;1.50;;;24.50;44.50;;;;;;220617;1265;22560;-61
2022/08/08 10:48:44;;;;;;;4.40;1.90;;;24.60;43.90;;;;;;221456;1265;22569;-60
2022/08/08 10:54:13;;;;;;;;;;;;;;;;;;;;;
2022/08/08 11:00:00;;;;;;;3.50;1.40;;;24.70;43.60;;;;;;221320;1262;24209;-60
2022/08/08 11:05:29;;;;;;;2.90;1.10;;;24.80;43.20;;;;;;221507;1261;23418;-63
2022/08/08 11:11:32;;;;;;;2.10;1.10;;;24.80;42.10;;;;;;221404;1262;25220;-60
2022/08/08 11:17:06;;;;;;;4.80;1.30;;;24.80;42.10;;;;;;221512;1262;24296;-59
2022/08/08 11:22:31;;;;;;;3.50;1.60;;;24.80;43.00;;;;;;221458;1262;24277;-60
2022/08/08 11:28:08;;;;;;;2.80;1.20;;;24.90;43.10;;;;;;221412;1262;24414;-61
2022/08/08 11:33:26;;;;;;;2.10;1.30;;;24.80;43.50;;;;;;221407;1262;22704;-62
2022/08/08 11:38:52;;;;;;;3.50;1.30;;;24.70;43.70;;;;;;221405;1262;23046;-61
2022/08/08 11:44:13;;;;;;;3.20;1.30;;;24.80;43.00;;;;;;221543;1262;24201;-60
2022/08/08 11:49:34;;;;;;;4.40;1.30;;;24.80;43.20;;;;;;221739;1262;24319;-60
2022/08/08 11:54:55;;;;;;;3.30;1.30;;;24.90;42.50;;;;;;221750;1262;24331;-59
2022/08/08 12:00:17;;;;;;;3.20;1.50;;;25.10;42.10;;;;;;221403;1262;22550;-60
2022/08/08 12:05:37;;;;;;;2.70;1.20;;;25.10;42.10;;;;;;221510;1262;24214;-59
2022/08/08 12:10:50;;;;;;;3.20;1.30;;;25.10;42.60;;;;;;221670;1262;22548;-60
2022/08/08 12:16:09;;;;;;;2.10;1.20;;;25.20;42.30;;;;;;221652;1262;24408;-60
2022/08/08 12:21:29;;;;;;;3.40;1.70;;;25.20;42.10;;;;;;221194;1262;25238;-60
2022/08/08 12:26:53;;;;;;;5.60;1.50;;;25.00;42.60;;;;;;221535;1262;25434;-58
2022/08/08 12:32:10;;;;;;;2.50;1.40;;;25.10;42.10;;;;;;221334;1262;25420;-60
2022/08/08 12:37:25;;;;;;;2.50;1.40;;;25.10;42.20;;;;;;221627;1262;22531;-59
2022/08/08 12:42:47;;;;;;;4.00;1.50;;;25.20;42.30;;;;;;221612;1262;22550;-60
2022/08/08 12:47:59;;;;;;;2.70;1.20;;;25.10;43.30;;;;;;221519;1262;22542;-60
2022/08/08 12:53:28;;;;;;;3.70;1.60;;;25.20;41.20;;;;;;221267;1262;22522;-60
2022/08/08 12:58:48;;;;;;;2.30;1.40;;;25.30;41.30;;;;;;221534;1262;24398;-60
2022/08/08 13:03:58;;;;;;;3.30;1.20;;;25.00;42.20;;;;;;221493;1262;22527;-61
2022/08/08 13:09:10;;;;;;;2.80;1.50;;;24.90;42.20;;;;;;221528;1262;22539;-63
2022/08/08 13:14:43;;;;;;;2.80;1.60;;;24.80;42.00;;;;;;221583;1262;22529;-59
2022/08/08 13:20:13;;;;;;;3.10;1.40;;;24.90;42.00;;;;;;221766;1262;25216;-59
2022/08/08 13:25:23;;;;;;;4.50;1.50;;;25.00;42.00;;;;;;221557;1262;22525;-60
2022/08/08 13:30:28;;;;;;;3.40;1.40;;;25.20;42.00;;;;;;221084;1265;22764;-60
2022/08/08 13:35:39;;;;;;;3.40;1.30;;;25.20;41.80;;;;;;221150;1265;24066;-61
2022/08/08 13:40:54;;;;;;;2.80;1.60;;;25.10;42.20;;;;;;221418;1265;23934;-61
2022/08/08 13:46:11;;;;;;;6.00;2.20;;;25.10;42.10;;;;;;221524;1262;24404;-60
2022/08/08 13:51:30;;;;;;;4.30;2.40;;;24.90;42.30;;;;;;221375;1262;22534;-60
2022/08/08 13:56:43;;;;;;;3.80;2.00;;;24.90;42.30;;;;;;221203;1265;22569;-59
2022/08/08 14:02:03;;;;;;;4.50;2.10;;;24.90;42.30;;;;;;221402;1262;25237;-60
2022/08/08 14:07:21;;;;;;;4.20;2.20;;;24.90;42.20;;;;;;221443;1265;22589;-62
2022/08/08 14:12:32;;;;;;;4.60;2.00;;;25.10;41.40;;;;;;221303;1265;25853;-60
2022/08/08 14:17:38;;;;;;;5.10;2.10;;;25.30;41.60;;;;;;221415;1262;24361;-60
2022/08/08 14:23:14;;;;;;;3.90;2.10;;;25.10;42.00;;;;;;221410;1262;22694;-59
2022/08/08 14:28:48;;;;;;;2.60;1.60;;;24.90;42.50;;;;;;221369;1265;24286;-60
2022/08/08 14:33:55;;;;;;;3.50;1.80;;;24.80;42.70;;;;;;221165;1262;24471;-59
2022/08/08 14:38:58;;;;;;;4.70;2.30;;;24.90;43.00;;;;;;221358;1265;24224;-60
2022/08/08 14:44:16;;;;;;;5.50;2.10;;;24.80;42.90;;;;;;221232;1265;22525;-60
2022/08/08 14:50:14;;;;;;;4.70;1.90;;;24.90;42.30;;;;;;221012;1264;24303;-59
2022/08/08 14:55:50;;;;;;;4.10;1.70;;;24.90;42.30;;;;;;221266;1265;24717;-60
2022/08/08 15:01:07;;;;;;;6.40;1.80;;;24.90;42.40;;;;;;221403;1265;23725;-59
2022/08/08 15:06:25;;;;;;;3.70;1.90;;;24.90;42.60;;;;;;221288;1265;22812;-61
2022/08/08 15:11:33;;;;;;;2.80;1.60;;;24.90;42.30;;;;;;221358;1262;25200;-59
2022/08/08 15:16:49;;;;;;;4.90;1.90;;;24.90;42.30;;;;;;221380;1262;24415;-60
2022/08/08 15:21:51;;;;;;;3.70;1.60;;;24.90;42.00;;;;;;221408;1265;22659;-60
2022/08/08 15:26:55;;;;;;;4.10;1.80;;;24.90;42.00;;;;;;221406;1262;22611;-59
2022/08/08 15:31:58;;;;;;;3.90;1.70;;;24.90;42.30;;;;;;221654;1262;22783;-61
2022/08/08 15:37:21;;;;;;;4.90;2.10;;;24.90;42.60;;;;;;221243;1262;25232;-60
2022/08/08 15:42:25;;;;;;;3.00;1.70;;;25.00;42.30;;;;;;221152;1262;22573;-60
2022/08/08 15:47:34;;;;;;;4.20;1.90;;;25.00;42.30;;;;;;221189;1262;22616;-60
2022/08/08 15:52:39;;;;;;;2.30;1.40;;;24.90;42.40;;;;;;221197;1262;22802;-61
2022/08/08 15:57:47;;;;;;;2.80;2.00;;;24.90;42.40;;;;;;221213;1265;22531;-61
2022/08/08 16:02:51;;;;;;;5.50;1.70;;;24.90;42.30;;;;;;221417;1262;22681;-60
2022/08/08 16:07:56;;;;;;;4.70;1.80;;;24.90;42.00;;;;;;221306;1261;24206;-61
2022/08/08 16:13:11;;;;;;;4.80;1.60;;;24.90;42.10;;;;;;221599;1262;22534;-60
2022/08/08 16:18:34;;;;;;;3.20;1.70;;;24.90;42.10;;;;;;221234;1261;22553;-60
2022/08/08 16:23:38;;;;;;;3.60;1.90;;;24.90;42.30;;;;;;221492;1262;24240;-62
2022/08/08 16:28:43;;;;;;;3.50;1.60;;;24.90;42.30;;;;;;221300;1262;24126;-58
2022/08/08 16:33:48;;;;;;;3.70;1.80;;;24.90;42.50;;;;;;221655;1262;25324;-63
2022/08/08 16:39:04;;;;;;;3.70;2.00;;;24.90;42.50;;;;;;221492;1261;22541;-60
2022/08/08 16:44:43;;;;;;;2.60;1.30;;;24.90;42.50;;;;;;221658;1264;23007;-60
2022/08/08 16:50:12;;;;;;;3.60;1.40;;;24.90;42.40;;;;;;221476;1262;22617;-60
2022/08/08 16:55:21;;;;;;;2.80;1.40;;;24.90;42.80;;;;;;220261;1264;1905466;-61
2022/08/08 17:00:44;;;;;;;3.00;1.40;;;24.90;42.80;;;;;;221515;1262;25365;-59
2022/08/08 17:06:00;;;;;;;6.20;1.80;;;24.90;42.80;;;;;;221309;1262;22544;-60
2022/08/08 17:11:14;;;;;;;4.20;1.80;;;24.80;43.10;;;;;;221462;1262;24290;-63
2022/08/08 17:16:21;;;;;;;3.20;1.70;;;24.80;43.10;;;;;;221521;1262;24202;-60
2022/08/08 17:21:36;;;;;;;3.00;1.50;;;24.80;43.50;;;;;;221504;1262;24341;-62
2022/08/08 17:27:00;;;;;;;7.10;1.50;;;24.80;43.30;;;;;;221427;1261;26567;-60
2022/08/08 17:32:13;;;;;;;3.20;1.20;;;24.80;44.10;;;;;;221492;1262;26627;-59
2022/08/08 17:37:18;;;;;;;4.20;1.70;;;24.80;43.80;;;;;;221483;1261;25226;-60
2022/08/08 17:42:23;;;;;;;4.50;1.60;;;24.80;43.50;;;;;;221463;1263;26620;-60
2022/08/08 17:47:28;;;;;;;3.40;1.30;;;24.80;42.80;;;;;;221401;1263;22529;-59
2022/08/08 17:52:42;;;;;;;3.40;1.80;;;24.80;43.10;;;;;;221318;1263;25244;-60
2022/08/08 17:58:00;;;;;;;4.00;1.20;;;24.80;43.30;;;;;;221591;1262;24367;-61
2022/08/08 18:03:05;;;;;;;3.00;1.60;;;24.80;43.60;;;;;;221586;1262;23677;-61
2022/08/08 18:08:17;;;;;;;2.30;1.10;;;24.80;43.70;;;;;;221782;1262;22678;-60
2022/08/08 18:13:47;;;;;;;4.70;1.20;;;24.70;43.90;;;;;;221348;1264;22548;-60
2022/08/08 18:18:53;;;;;;;4.10;1.60;;;24.80;44.20;;;;;;221273;1263;25279;-59
2022/08/08 18:24:00;;;;;;;3.10;1.30;;;24.70;44.50;;;;;;221466;1262;23925;-60
2022/08/08 18:29:34;;;;;;;4.70;1.30;;;24.70;44.70;;;;;;221223;1262;22528;-60
2022/08/08 18:34:56;;;;;;;4.60;1.50;;;24.70;44.50;;;;;;221177;1262;24724;-58
2022/08/08 18:40:29;;;;;;;4.30;1.60;;;24.70;44.50;;;;;;221097;1265;25339;-61
2022/08/08 18:45:58;;;;;;;2.80;1.70;;;24.60;44.90;;;;;;221378;1262;24398;-58
2022/08/08 18:51:27;;;;;;;1.90;1.10;;;24.70;44.60;;;;;;221141;1265;24381;-62
2022/08/08 18:56:54;;;;;;;3.70;1.40;;;24.60;44.70;;;;;;221144;1264;25244;-61
2022/08/08 19:02:03;;;;;;;2.70;1.50;;;24.60;44.80;;;;;;221376;1265;22540;-60
2022/08/08 19:07:25;;;;;;;4.70;1.70;;;24.60;45.00;;;;;;221359;1262;24286;-60
2022/08/08 19:12:54;;;;;;;4.10;1.70;;;24.60;45.20;;;;;;221334;1265;22836;-59
2022/08/08 19:17:57;;;;;;;3.40;1.70;;;24.60;45.50;;;;;;221429;1265;24836;-59
2022/08/08 19:23:27;;;;;;;3.60;1.90;;;24.60;45.30;;;;;;221371;1266;25251;-60
2022/08/08 19:28:39;;;;;;;3.90;1.50;;;24.60;45.30;;;;;;221111;1265;22540;-62
2022/08/08 19:33:47;;;;;;;3.30;1.70;;;24.60;45.80;;;;;;221391;1265;22551;-61
2022/08/08 19:39:11;;;;;;;5.80;1.80;;;24.50;45.70;;;;;;221408;1265;22537;-59
2022/08/08 19:44:19;;;;;;;3.40;1.70;;;24.50;46.50;;;;;;220900;1265;25367;-60
2022/08/08 19:49:43;;;;;;;3.40;1.80;;;24.50;47.20;;;;;;221207;1265;22674;-60
2022/08/08 19:55:11;;;;;;;5.90;2.30;;;24.50;46.70;;;;;;221448;1265;22560;-61
2022/08/08 20:00:22;;;;;;;7.20;3.20;;;24.50;47.10;;;;;;221402;1265;24480;-60
2022/08/08 20:05:33;;;;;;;4.40;2.60;;;24.50;47.20;;;;;;221332;1265;24277;-60
2022/08/08 20:10:59;;;;;;;5.30;3.00;;;24.50;47.50;;;;;;221078;1265;22697;-57
2022/08/08 20:16:06;;;;;;;5.30;2.50;;;24.50;47.80;;;;;;221293;1265;23071;-60
2022/08/08 20:21:09;;;;;;;7.60;2.70;;;24.40;47.40;;;;;;221404;1265;22552;-60
2022/08/08 20:26:16;;;;;;;5.50;2.60;;;24.40;47.80;;;;;;221044;1265;22531;-58
2022/08/08 20:31:24;;;;;;;5.80;2.60;;;24.40;47.60;;;;;;221372;1265;22793;-60
2022/08/08 20:37:13;;;;;;;4.10;2.20;;;24.40;48.20;;;;;;221647;1265;22666;-60
2022/08/08 20:42:24;;;;;;;6.40;2.60;;;24.40;47.80;;;;;;221313;1265;22562;-61
2022/08/08 20:47:34;;;;;;;5.10;2.80;;;24.40;48.00;;;;;;221305;1265;24245;-60
2022/08/08 20:53:03;;;;;;;6.00;2.10;;;24.30;48.20;;;;;;221218;1265;24360;-59
2022/08/08 20:58:30;;;;;;;4.40;2.30;;;24.30;48.30;;;;;;221356;1265;24344;-60
2022/08/08 21:03:34;;;;;;;5.10;2.30;;;24.30;48.50;;;;;;221387;1265;23002;-59
2022/08/08 21:09:00;;;;;;;4.60;2.50;;;24.30;48.30;;;;;;221307;1265;22528;-60
2022/08/08 21:14:02;;;;;;;3.80;2.00;;;24.30;48.60;;;;;;221013;1267;26557;-60
2022/08/08 21:19:09;;;;;;;5.00;2.00;;;24.30;48.70;;;;;;221254;1265;22564;-59
2022/08/08 21:24:12;;;;;;;3.10;1.80;;;24.30;48.90;;;;;;221346;1265;25248;-59
2022/08/08 21:29:34;;;;;;;8.20;2.60;;;24.20;48.80;;;;;;221121;1265;24243;-58
2022/08/08 21:34:59;;;;;;;4.50;2.00;;;24.20;49.10;;;;;;221554;1265;22532;-59
2022/08/08 21:40:22;;;;;;;3.40;1.90;;;24.20;48.90;;;;;;221176;1263;24405;-61
2022/08/08 21:45:33;;;;;;;5.50;2.30;;;24.20;48.90;;;;;;221222;1265;26500;-60
2022/08/08 21:50:55;;;;;;;4.20;2.00;;;24.20;48.60;;;;;;221154;1265;24460;-59
2022/08/08 21:56:00;;;;;;;6.10;2.60;;;24.10;49.00;;;;;;221283;1267;22587;-59
2022/08/08 22:01:23;;;;;;;5.00;2.10;;;24.10;49.00;;;;;;221027;1265;22541;-61
2022/08/08 22:06:41;;;;;;;4.40;2.30;;;24.10;49.10;;;;;;221569;1262;24260;-58
2022/08/08 22:11:45;;;;;;;4.20;2.20;;;24.10;49.10;;;;;;221703;1262;22536;-58
2022/08/08 22:17:06;;;;;;;5.20;2.40;;;24.10;49.20;;;;;;221427;1262;25409;-60
2022/08/08 22:22:09;;;;;;;5.20;2.10;;;24.10;49.60;;;;;;221511;1261;22525;-60
2022/08/08 22:27:15;;;;;;;5.40;2.20;;;24.10;49.30;;;;;;221456;1262;23933;-61
2022/08/08 22:32:37;;;;;;;3.80;1.90;;;24.10;49.20;;;;;;221503;1262;22613;-60
2022/08/08 22:37:39;;;;;;;4.40;2.10;;;24.10;49.60;;;;;;221721;1261;22594;-60
2022/08/08 22:42:56;;;;;;;5.80;2.50;;;24.00;49.20;;;;;;221411;1262;25387;-60
2022/08/08 22:47:59;;;;;;;5.50;2.20;;;24.00;49.50;;;;;;221539;1262;25249;-60
2022/08/08 22:53:04;;;;;;;4.50;2.10;;;24.00;49.20;;;;;;221329;1265;22548;-61
2022/08/08 22:58:31;;;;;;;3.50;2.30;;;24.00;49.10;;;;;;221282;1265;23287;-60
2022/08/08 23:03:35;;;;;;;3.30;2.00;;;23.90;49.00;;;;;;221241;1265;23907;-60
2022/08/08 23:08:59;;;;;;;5.80;2.20;;;24.00;49.40;;;;;;221448;1265;24343;-61
2022/08/08 23:14:02;;;;;;;4.60;2.30;;;23.90;49.30;;;;;;221476;1262;22825;-62
2022/08/08 23:19:05;;;;;;;6.20;2.40;;;23.90;49.00;;;;;;221321;1262;22532;-61
2022/08/08 23:24:10;;;;;;;4.80;2.20;;;23.90;49.60;;;;;;221166;1265;22803;-60
2022/08/08 23:29:13;;;;;;;4.00;2.10;;;23.90;48.90;;;;;;221212;1262;25296;-59
2022/08/08 23:34:18;;;;;;;3.80;2.30;;;23.90;48.90;;;;;;221477;1262;22552;-60
2022/08/08 23:39:28;;;;;;;4.60;2.00;;;23.90;48.90;;;;;;221217;1262;25304;-60
2022/08/08 23:44:42;;;;;;;4.00;2.20;;;23.90;49.00;;;;;;221171;1262;22783;-60
2022/08/08 23:49:48;;;;;;;3.20;2.10;;;23.90;49.20;;;;;;221340;1262;22681;-59
2022/08/08 23:55:05;;;;;;;2.90;2.10;;;23.80;48.90;;;;;;221280;1262;22560;-60
